Blodgett, Oregon
Current Conditions -  °F | °C
As of 5:15 AM on Wednesday 22 Oct 2014 (Local Time) from KCVO Reporting Station
Overcast Overcast  
Wind Chill: 55°   Ceiling: 6000
Heat Index: 55°   Visibility: 10mi
Dew Point: 52°   Wind: 13mph
Humidity: 88%   Direction: 200°SSW
Pressure: 29.84"   Gusts: NA
Location:  44.6°N, 123.52°W
Report Text: KCVO 221215Z AUTO 20011KT 10SM SCT048 BKN060 OVC100 13/11 A2984 RMK AO1 P0001
Loading
Personal Weather Stations






























Interactive Weather Map
Tropical Storm Tracking
New forecast layout! Learn more

10-Day Weather Forecast

Advertisements
Track Severe Weather on mobile